sensor_id;sensor_type;location;lat;lon;timestamp;P1;durP1;ratioP1;P2;durP2;ratioP2
14306;SDS011;7237;49.500;11.400;2023-08-06T00:02:11;3.53;;;3.22;;
14306;SDS011;7237;49.500;11.400;2023-08-06T00:04:38;4.22;;;3.83;;
14306;SDS011;7237;49.500;11.400;2023-08-06T00:07:05;4.25;;;3.40;;
14306;SDS011;7237;49.500;11.400;2023-08-06T00:09:32;3.88;;;3.47;;
14306;SDS011;7237;49.500;11.400;2023-08-06T00:11:59;7.18;;;3.67;;
14306;SDS011;7237;49.500;11.400;2023-08-06T00:14:27;4.07;;;3.67;;
14306;SDS011;7237;49.500;11.400;2023-08-06T00:16:55;3.75;;;3.42;;
14306;SDS011;7237;49.500;11.400;2023-08-06T00:19:22;3.90;;;3.60;;
14306;SDS011;7237;49.500;11.400;2023-08-06T00:21:49;4.38;;;3.88;;
14306;SDS011;7237;49.500;11.400;2023-08-06T00:24:16;8.18;;;4.53;;
14306;SDS011;7237;49.500;11.400;2023-08-06T00:26:43;4.72;;;4.15;;
14306;SDS011;7237;49.500;11.400;2023-08-06T00:29:11;4.93;;;4.07;;
14306;SDS011;7237;49.500;11.400;2023-08-06T00:31:38;7.05;;;4.50;;
14306;SDS011;7237;49.500;11.400;2023-08-06T00:34:06;4.00;;;3.70;;
14306;SDS011;7237;49.500;11.400;2023-08-06T00:36:33;4.55;;;3.33;;
14306;SDS011;7237;49.500;11.400;2023-08-06T00:39:00;4.50;;;3.67;;
14306;SDS011;7237;49.500;11.400;2023-08-06T00:41:28;3.40;;;3.08;;
14306;SDS011;7237;49.500;11.400;2023-08-06T00:43:55;4.25;;;3.22;;
14306;SDS011;7237;49.500;11.400;2023-08-06T00:46:22;4.45;;;3.78;;
14306;SDS011;7237;49.500;11.400;2023-08-06T00:48:49;4.45;;;3.42;;
14306;SDS011;7237;49.500;11.400;2023-08-06T00:51:18;3.92;;;3.45;;
14306;SDS011;7237;49.500;11.400;2023-08-06T00:53:46;3.47;;;3.17;;
14306;SDS011;7237;49.500;11.400;2023-08-06T00:56:13;3.47;;;3.17;;
14306;SDS011;7237;49.500;11.400;2023-08-06T00:58:40;3.70;;;3.40;;
14306;SDS011;7237;49.500;11.400;2023-08-06T01:01:07;3.80;;;3.03;;
14306;SDS011;7237;49.500;11.400;2023-08-06T01:03:35;3.20;;;2.90;;
14306;SDS011;7237;49.500;11.400;2023-08-06T01:06:02;6.93;;;3.15;;
14306;SDS011;7237;49.500;11.400;2023-08-06T01:08:34;3.67;;;3.38;;
14306;SDS011;7237;49.500;11.400;2023-08-06T01:11:07;4.25;;;3.88;;
14306;SDS011;7237;49.500;11.400;2023-08-06T01:13:37;4.70;;;3.75;;
14306;SDS011;7237;49.500;11.400;2023-08-06T01:16:09;4.10;;;2.73;;
14306;SDS011;7237;49.500;11.400;2023-08-06T01:18:36;3.83;;;3.53;;
14306;SDS011;7237;49.500;11.400;2023-08-06T01:21:06;3.60;;;3.30;;
14306;SDS011;7237;49.500;11.400;2023-08-06T01:23:33;3.85;;;3.55;;
14306;SDS011;7237;49.500;11.400;2023-08-06T01:26:02;8.75;;;4.18;;
14306;SDS011;7237;49.500;11.400;2023-08-06T01:28:33;3.50;;;3.25;;
14306;SDS011;7237;49.500;11.400;2023-08-06T01:31:04;3.58;;;3.28;;
14306;SDS011;7237;49.500;11.400;2023-08-06T01:33:32;4.72;;;3.17;;
14306;SDS011;7237;49.500;11.400;2023-08-06T01:36:01;4.53;;;3.63;;
14306;SDS011;7237;49.500;11.400;2023-08-06T01:38:30;4.25;;;3.60;;
14306;SDS011;7237;49.500;11.400;2023-08-06T01:40:57;3.78;;;3.45;;
14306;SDS011;7237;49.500;11.400;2023-08-06T01:43:25;4.53;;;3.17;;
14306;SDS011;7237;49.500;11.400;2023-08-06T01:45:52;7.03;;;3.45;;
14306;SDS011;7237;49.500;11.400;2023-08-06T01:48:19;3.63;;;3.30;;
14306;SDS011;7237;49.500;11.400;2023-08-06T01:50:46;3.05;;;2.85;;
14306;SDS011;7237;49.500;11.400;2023-08-06T01:53:13;3.45;;;3.20;;
14306;SDS011;7237;49.500;11.400;2023-08-06T01:55:41;4.20;;;3.45;;
14306;SDS011;7237;49.500;11.400;2023-08-06T01:58:08;4.18;;;3.47;;
14306;SDS011;7237;49.500;11.400;2023-08-06T02:00:36;4.85;;;3.58;;
14306;SDS011;7237;49.500;11.400;2023-08-06T02:03:03;4.20;;;3.05;;
14306;SDS011;7237;49.500;11.400;2023-08-06T02:05:30;5.05;;;3.78;;
14306;SDS011;7237;49.500;11.400;2023-08-06T02:07:57;5.55;;;3.60;;
14306;SDS011;7237;49.500;11.400;2023-08-06T02:10:24;5.05;;;3.42;;
14306;SDS011;7237;49.500;11.400;2023-08-06T02:12:53;3.60;;;3.30;;
14306;SDS011;7237;49.500;11.400;2023-08-06T02:15:20;3.50;;;3.20;;
14306;SDS011;7237;49.500;11.400;2023-08-06T02:17:47;3.65;;;3.30;;
14306;SDS011;7237;49.500;11.400;2023-08-06T02:20:14;4.53;;;3.95;;
14306;SDS011;7237;49.500;11.400;2023-08-06T02:22:41;4.40;;;3.77;;
14306;SDS011;7237;49.500;11.400;2023-08-06T02:25:08;4.55;;;3.58;;
14306;SDS011;7237;49.500;11.400;2023-08-06T02:27:36;4.82;;;3.38;;
14306;SDS011;7237;49.500;11.400;2023-08-06T02:30:06;3.97;;;3.58;;
14306;SDS011;7237;49.500;11.400;2023-08-06T02:32:33;5.38;;;3.78;;
14306;SDS011;7237;49.500;11.400;2023-08-06T02:35:01;4.45;;;3.40;;
14306;SDS011;7237;49.500;11.400;2023-08-06T02:37:28;4.43;;;4.03;;
14306;SDS011;7237;49.500;11.400;2023-08-06T02:39:55;5.00;;;4.35;;
14306;SDS011;7237;49.500;11.400;2023-08-06T02:42:22;7.30;;;3.77;;
14306;SDS011;7237;49.500;11.400;2023-08-06T02:44:50;18.77;;;3.97;;
14306;SDS011;7237;49.500;11.400;2023-08-06T02:47:19;4.82;;;4.03;;
14306;SDS011;7237;49.500;11.400;2023-08-06T02:49:46;3.90;;;3.50;;
14306;SDS011;7237;49.500;11.400;2023-08-06T02:52:13;4.40;;;4.00;;
14306;SDS011;7237;49.500;11.400;2023-08-06T02:54:40;4.03;;;3.72;;
14306;SDS011;7237;49.500;11.400;2023-08-06T02:57:07;4.78;;;3.63;;
14306;SDS011;7237;49.500;11.400;2023-08-06T02:59:34;4.90;;;3.80;;
14306;SDS011;7237;49.500;11.400;2023-08-06T03:02:01;7.03;;;3.72;;
14306;SDS011;7237;49.500;11.400;2023-08-06T03:04:30;5.13;;;4.17;;
14306;SDS011;7237;49.500;11.400;2023-08-06T03:06:57;4.07;;;3.70;;
14306;SDS011;7237;49.500;11.400;2023-08-06T03:09:24;4.05;;;3.60;;
14306;SDS011;7237;49.500;11.400;2023-08-06T03:11:51;5.63;;;4.30;;
14306;SDS011;7237;49.500;11.400;2023-08-06T03:14:18;4.80;;;4.50;;
14306;SDS011;7237;49.500;11.400;2023-08-06T03:16:45;6.00;;;4.50;;
14306;SDS011;7237;49.500;11.400;2023-08-06T03:19:12;6.28;;;4.65;;
14306;SDS011;7237;49.500;11.400;2023-08-06T03:21:40;7.28;;;4.30;;
14306;SDS011;7237;49.500;11.400;2023-08-06T03:24:07;4.90;;;4.40;;
14306;SDS011;7237;49.500;11.400;2023-08-06T03:26:34;5.03;;;4.60;;
14306;SDS011;7237;49.500;11.400;2023-08-06T03:29:02;5.27;;;4.60;;
14306;SDS011;7237;49.500;11.400;2023-08-06T03:31:29;9.73;;;4.57;;
14306;SDS011;7237;49.500;11.400;2023-08-06T03:33:56;5.32;;;4.82;;
14306;SDS011;7237;49.500;11.400;2023-08-06T03:36:23;7.20;;;4.75;;
14306;SDS011;7237;49.500;11.400;2023-08-06T03:38:51;5.70;;;5.20;;
14306;SDS011;7237;49.500;11.400;2023-08-06T03:41:18;4.82;;;4.43;;
14306;SDS011;7237;49.500;11.400;2023-08-06T03:43:45;5.03;;;4.50;;
14306;SDS011;7237;49.500;11.400;2023-08-06T03:46:12;5.00;;;4.53;;
14306;SDS011;7237;49.500;11.400;2023-08-06T03:48:39;4.80;;;3.90;;
14306;SDS011;7237;49.500;11.400;2023-08-06T03:51:07;7.30;;;4.37;;
14306;SDS011;7237;49.500;11.400;2023-08-06T03:53:34;4.25;;;3.85;;
14306;SDS011;7237;49.500;11.400;2023-08-06T03:56:02;4.17;;;3.80;;
14306;SDS011;7237;49.500;11.400;2023-08-06T03:58:29;6.78;;;4.10;;
14306;SDS011;7237;49.500;11.400;2023-08-06T04:00:57;3.92;;;3.60;;
14306;SDS011;7237;49.500;11.400;2023-08-06T04:03:24;3.78;;;3.42;;
14306;SDS011;7237;49.500;11.400;2023-08-06T04:05:52;3.67;;;3.37;;
14306;SDS011;7237;49.500;11.400;2023-08-06T04:08:19;4.37;;;3.83;;
14306;SDS011;7237;49.500;11.400;2023-08-06T04:10:48;3.88;;;3.58;;
14306;SDS011;7237;49.500;11.400;2023-08-06T04:13:17;3.87;;;3.47;;
14306;SDS011;7237;49.500;11.400;2023-08-06T04:15:44;4.80;;;3.57;;
14306;SDS011;7237;49.500;11.400;2023-08-06T04:18:12;6.17;;;3.47;;
14306;SDS011;7237;49.500;11.400;2023-08-06T04:20:42;6.97;;;3.50;;
14306;SDS011;7237;49.500;11.400;2023-08-06T04:23:10;3.70;;;3.30;;
14306;SDS011;7237;49.500;11.400;2023-08-06T04:25:37;4.97;;;3.75;;
14306;SDS011;7237;49.500;11.400;2023-08-06T04:28:04;5.97;;;3.05;;
14306;SDS011;7237;49.500;11.400;2023-08-06T04:30:32;3.28;;;2.92;;
14306;SDS011;7237;49.500;11.400;2023-08-06T04:32:59;3.80;;;2.75;;
14306;SDS011;7237;49.500;11.400;2023-08-06T04:35:27;4.28;;;2.90;;
14306;SDS011;7237;49.500;11.400;2023-08-06T04:37:54;3.63;;;2.80;;
14306;SDS011;7237;49.500;11.400;2023-08-06T04:40:21;4.78;;;3.20;;
14306;SDS011;7237;49.500;11.400;2023-08-06T04:42:48;7.53;;;3.58;;
14306;SDS011;7237;49.500;11.400;2023-08-06T04:45:15;3.28;;;2.70;;
14306;SDS011;7237;49.500;11.400;2023-08-06T04:47:44;3.23;;;2.90;;
14306;SDS011;7237;49.500;11.400;2023-08-06T04:50:11;3.43;;;3.13;;
14306;SDS011;7237;49.500;11.400;2023-08-06T04:52:38;5.43;;;3.20;;
14306;SDS011;7237;49.500;11.400;2023-08-06T04:55:05;3.13;;;2.93;;
14306;SDS011;7237;49.500;11.400;2023-08-06T04:57:32;4.10;;;2.63;;
14306;SDS011;7237;49.500;11.400;2023-08-06T04:59:59;4.93;;;3.20;;
14306;SDS011;7237;49.500;11.400;2023-08-06T05:02:26;3.77;;;3.03;;
14306;SDS011;7237;49.500;11.400;2023-08-06T05:04:55;4.38;;;2.67;;
14306;SDS011;7237;49.500;11.400;2023-08-06T05:07:22;4.82;;;3.08;;
14306;SDS011;7237;49.500;11.400;2023-08-06T05:09:49;3.20;;;3.00;;
14306;SDS011;7237;49.500;11.400;2023-08-06T05:12:16;3.13;;;2.80;;
14306;SDS011;7237;49.500;11.400;2023-08-06T05:14:43;2.83;;;2.63;;
14306;SDS011;7237;49.500;11.400;2023-08-06T05:17:10;2.92;;;2.72;;
14306;SDS011;7237;49.500;11.400;2023-08-06T05:19:37;3.53;;;2.60;;
14306;SDS011;7237;49.500;11.400;2023-08-06T05:22:06;3.15;;;2.35;;
14306;SDS011;7237;49.500;11.400;2023-08-06T05:24:33;2.80;;;2.60;;
14306;SDS011;7237;49.500;11.400;2023-08-06T05:27:00;3.40;;;2.60;;
14306;SDS011;7237;49.500;11.400;2023-08-06T05:29:27;2.80;;;2.60;;
14306;SDS011;7237;49.500;11.400;2023-08-06T05:31:54;3.72;;;2.60;;
14306;SDS011;7237;49.500;11.400;2023-08-06T05:34:21;3.70;;;2.60;;
14306;SDS011;7237;49.500;11.400;2023-08-06T05:36:48;3.20;;;2.90;;
14306;SDS011;7237;49.500;11.400;2023-08-06T05:39:17;4.18;;;2.80;;
14306;SDS011;7237;49.500;11.400;2023-08-06T05:41:44;2.75;;;2.08;;
14306;SDS011;7237;49.500;11.400;2023-08-06T05:44:11;2.15;;;2.05;;
14306;SDS011;7237;49.500;11.400;2023-08-06T05:46:38;4.05;;;2.55;;
14306;SDS011;7237;49.500;11.400;2023-08-06T05:49:05;2.45;;;2.25;;
14306;SDS011;7237;49.500;11.400;2023-08-06T05:51:32;2.40;;;2.20;;
14306;SDS011;7237;49.500;11.400;2023-08-06T05:53:59;2.50;;;2.30;;
14306;SDS011;7237;49.500;11.400;2023-08-06T05:56:28;3.05;;;2.20;;
14306;SDS011;7237;49.500;11.400;2023-08-06T05:58:55;3.58;;;2.33;;
14306;SDS011;7237;49.500;11.400;2023-08-06T06:01:22;3.63;;;2.45;;
14306;SDS011;7237;49.500;11.400;2023-08-06T06:03:49;6.18;;;2.10;;
14306;SDS011;7237;49.500;11.400;2023-08-06T06:06:16;4.07;;;2.20;;
14306;SDS011;7237;49.500;11.400;2023-08-06T06:08:43;6.38;;;2.60;;
14306;SDS011;7237;49.500;11.400;2023-08-06T06:11:11;3.47;;;2.20;;
14306;SDS011;7237;49.500;11.400;2023-08-06T06:13:39;2.47;;;2.28;;
14306;SDS011;7237;49.500;11.400;2023-08-06T06:16:06;2.20;;;2.00;;
14306;SDS011;7237;49.500;11.400;2023-08-06T06:18:33;9.18;;;2.40;;
14306;SDS011;7237;49.500;11.400;2023-08-06T06:21:00;2.20;;;2.00;;
14306;SDS011;7237;49.500;11.400;2023-08-06T06:23:27;3.45;;;2.22;;
14306;SDS011;7237;49.500;11.400;2023-08-06T06:25:54;4.07;;;2.53;;
14306;SDS011;7237;49.500;11.400;2023-08-06T06:28:21;3.78;;;2.13;;
14306;SDS011;7237;49.500;11.400;2023-08-06T06:30:51;4.30;;;2.08;;
14306;SDS011;7237;49.500;11.400;2023-08-06T06:33:18;3.45;;;2.10;;
14306;SDS011;7237;49.500;11.400;2023-08-06T06:35:45;1.95;;;1.85;;
14306;SDS011;7237;49.500;11.400;2023-08-06T06:38:12;2.05;;;1.95;;
14306;SDS011;7237;49.500;11.400;2023-08-06T06:40:39;2.28;;;1.83;;
14306;SDS011;7237;49.500;11.400;2023-08-06T06:43:06;3.13;;;1.85;;
14306;SDS011;7237;49.500;11.400;2023-08-06T06:45:34;2.40;;;1.90;;
14306;SDS011;7237;49.500;11.400;2023-08-06T06:48:02;2.45;;;1.83;;
14306;SDS011;7237;49.500;11.400;2023-08-06T06:50:29;5.18;;;1.92;;
14306;SDS011;7237;49.500;11.400;2023-08-06T06:52:56;5.00;;;1.92;;
14306;SDS011;7237;49.500;11.400;2023-08-06T06:55:23;1.90;;;1.70;;
14306;SDS011;7237;49.500;11.400;2023-08-06T06:57:51;3.80;;;1.88;;
14306;SDS011;7237;49.500;11.400;2023-08-06T07:00:18;2.63;;;1.75;;
14306;SDS011;7237;49.500;11.400;2023-08-06T07:02:45;2.10;;;1.40;;
14306;SDS011;7237;49.500;11.400;2023-08-06T07:05:13;2.17;;;1.63;;
14306;SDS011;7237;49.500;11.400;2023-08-06T07:07:41;2.15;;;1.75;;
14306;SDS011;7237;49.500;11.400;2023-08-06T07:10:08;3.40;;;1.90;;
14306;SDS011;7237;49.500;11.400;2023-08-06T07:12:35;2.75;;;1.80;;
14306;SDS011;7237;49.500;11.400;2023-08-06T07:15:03;3.00;;;2.10;;
14306;SDS011;7237;49.500;11.400;2023-08-06T07:17:30;2.72;;;2.03;;
14306;SDS011;7237;49.500;11.400;2023-08-06T07:19:57;2.42;;;2.17;;
14306;SDS011;7237;49.500;11.400;2023-08-06T07:22:25;3.10;;;1.90;;
14306;SDS011;7237;49.500;11.400;2023-08-06T07:24:53;2.65;;;1.80;;
14306;SDS011;7237;49.500;11.400;2023-08-06T07:27:20;5.63;;;1.85;;
14306;SDS011;7237;49.500;11.400;2023-08-06T07:29:47;3.80;;;2.35;;
14306;SDS011;7237;49.500;11.400;2023-08-06T07:32:14;2.42;;;1.80;;
14306;SDS011;7237;49.500;11.400;2023-08-06T07:34:42;2.50;;;1.80;;
14306;SDS011;7237;49.500;11.400;2023-08-06T07:37:09;2.40;;;1.98;;
14306;SDS011;7237;49.500;11.400;2023-08-06T07:39:37;2.65;;;1.90;;
14306;SDS011;7237;49.500;11.400;2023-08-06T07:42:06;3.55;;;1.85;;
14306;SDS011;7237;49.500;11.400;2023-08-06T07:44:33;3.58;;;2.25;;
14306;SDS011;7237;49.500;11.400;2023-08-06T07:47:01;4.40;;;2.03;;
14306;SDS011;7237;49.500;11.400;2023-08-06T07:49:28;2.53;;;2.03;;
14306;SDS011;7237;49.500;11.400;2023-08-06T07:51:55;2.17;;;1.98;;
14306;SDS011;7237;49.500;11.400;2023-08-06T07:54:22;1.70;;;1.60;;
14306;SDS011;7237;49.500;11.400;2023-08-06T07:56:51;1.77;;;1.48;;
14306;SDS011;7237;49.500;11.400;2023-08-06T07:59:18;2.13;;;1.92;;
14306;SDS011;7237;49.500;11.400;2023-08-06T08:01:45;3.05;;;1.63;;
14306;SDS011;7237;49.500;11.400;2023-08-06T08:04:12;2.10;;;1.95;;
14306;SDS011;7237;49.500;11.400;2023-08-06T08:06:39;3.75;;;1.90;;
14306;SDS011;7237;49.500;11.400;2023-08-06T08:09:06;2.67;;;1.77;;
14306;SDS011;7237;49.500;11.400;2023-08-06T08:11:33;3.10;;;2.00;;
14306;SDS011;7237;49.500;11.400;2023-08-06T08:14:02;2.13;;;1.92;;
14306;SDS011;7237;49.500;11.400;2023-08-06T08:16:29;1.70;;;1.60;;
14306;SDS011;7237;49.500;11.400;2023-08-06T08:18:56;2.40;;;1.75;;
14306;SDS011;7237;49.500;11.400;2023-08-06T08:21:23;2.20;;;2.00;;
14306;SDS011;7237;49.500;11.400;2023-08-06T08:23:50;2.25;;;1.92;;
14306;SDS011;7237;49.500;11.400;2023-08-06T08:26:17;2.22;;;1.98;;
14306;SDS011;7237;49.500;11.400;2023-08-06T08:28:44;1.88;;;1.70;;
14306;SDS011;7237;49.500;11.400;2023-08-06T08:31:12;3.58;;;2.08;;
14306;SDS011;7237;49.500;11.400;2023-08-06T08:33:40;3.60;;;2.00;;
14306;SDS011;7237;49.500;11.400;2023-08-06T08:36:07;2.08;;;1.80;;
14306;SDS011;7237;49.500;11.400;2023-08-06T08:38:35;3.17;;;1.70;;
14306;SDS011;7237;49.500;11.400;2023-08-06T08:41:02;3.15;;;1.80;;
14306;SDS011;7237;49.500;11.400;2023-08-06T08:43:30;1.88;;;1.38;;
14306;SDS011;7237;49.500;11.400;2023-08-06T08:45:57;3.63;;;1.70;;
14306;SDS011;7237;49.500;11.400;2023-08-06T08:48:26;3.58;;;1.80;;
14306;SDS011;7237;49.500;11.400;2023-08-06T08:50:54;1.63;;;1.52;;
14306;SDS011;7237;49.500;11.400;2023-08-06T08:53:22;1.63;;;1.35;;
14306;SDS011;7237;49.500;11.400;2023-08-06T08:55:49;1.42;;;1.33;;
14306;SDS011;7237;49.500;11.400;2023-08-06T08:58:17;3.05;;;1.90;;
14306;SDS011;7237;49.500;11.400;2023-08-06T09:00:45;1.85;;;1.70;;
14306;SDS011;7237;49.500;11.400;2023-08-06T09:03:13;1.70;;;1.00;;
14306;SDS011;7237;49.500;11.400;2023-08-06T09:05:43;3.17;;;1.40;;
14306;SDS011;7237;49.500;11.400;2023-08-06T09:08:11;1.33;;;1.23;;
14306;SDS011;7237;49.500;11.400;2023-08-06T09:10:38;2.30;;;1.40;;
14306;SDS011;7237;49.500;11.400;2023-08-06T09:13:06;2.38;;;1.10;;
14306;SDS011;7237;49.500;11.400;2023-08-06T09:15:33;1.13;;;1.05;;
14306;SDS011;7237;49.500;11.400;2023-08-06T09:18:01;1.30;;;1.20;;
14306;SDS011;7237;49.500;11.400;2023-08-06T09:20:35;1.52;;;0.90;;
14306;SDS011;7237;49.500;11.400;2023-08-06T09:23:07;1.08;;;1.05;;
14306;SDS011;7237;49.500;11.400;2023-08-06T09:25:36;1.17;;;1.08;;
14306;SDS011;7237;49.500;11.400;2023-08-06T09:28:04;0.98;;;0.85;;
14306;SDS011;7237;49.500;11.400;2023-08-06T09:30:32;1.60;;;1.23;;
14306;SDS011;7237;49.500;11.400;2023-08-06T09:32:59;1.67;;;1.02;;
14306;SDS011;7237;49.500;11.400;2023-08-06T09:35:28;1.00;;;1.00;;
14306;SDS011;7237;49.500;11.400;2023-08-06T09:37:55;1.58;;;0.88;;
14306;SDS011;7237;49.500;11.400;2023-08-06T09:40:27;0.70;;;0.70;;
14306;SDS011;7237;49.500;11.400;2023-08-06T09:42:54;2.53;;;1.02;;
14306;SDS011;7237;49.500;11.400;2023-08-06T09:45:21;0.65;;;0.50;;
14306;SDS011;7237;49.500;11.400;2023-08-06T09:47:49;0.65;;;0.55;;
14306;SDS011;7237;49.500;11.400;2023-08-06T09:50:16;0.80;;;0.50;;
14306;SDS011;7237;49.500;11.400;2023-08-06T09:52:44;0.50;;;0.50;;
14306;SDS011;7237;49.500;11.400;2023-08-06T09:55:11;0.55;;;0.40;;
14306;SDS011;7237;49.500;11.400;2023-08-06T09:57:40;1.70;;;0.50;;
14306;SDS011;7237;49.500;11.400;2023-08-06T10:00:08;0.90;;;0.70;;
14306;SDS011;7237;49.500;11.400;2023-08-06T10:02:36;0.40;;;0.40;;
14306;SDS011;7237;49.500;11.400;2023-08-06T10:05:04;0.30;;;0.30;;
14306;SDS011;7237;49.500;11.400;2023-08-06T10:07:31;0.20;;;0.20;;
14306;SDS011;7237;49.500;11.400;2023-08-06T10:09:59;0.30;;;0.30;;
14306;SDS011;7237;49.500;11.400;2023-08-06T10:12:27;0.82;;;0.47;;
14306;SDS011;7237;49.500;11.400;2023-08-06T10:14:57;0.20;;;0.20;;
14306;SDS011;7237;49.500;11.400;2023-08-06T10:17:26;0.85;;;0.32;;
14306;SDS011;7237;49.500;11.400;2023-08-06T10:19:54;0.22;;;0.22;;
14306;SDS011;7237;49.500;11.400;2023-08-06T10:22:21;1.85;;;0.32;;
14306;SDS011;7237;49.500;11.400;2023-08-06T10:24:49;0.30;;;0.30;;
14306;SDS011;7237;49.500;11.400;2023-08-06T10:27:27;0.55;;;0.20;;
14306;SDS011;7237;49.500;11.400;2023-08-06T10:29:56;0.43;;;0.43;;
14306;SDS011;7237;49.500;11.400;2023-08-06T10:32:46;0.28;;;0.28;;
14306;SDS011;7237;49.500;11.400;2023-08-06T10:35:27;0.30;;;0.30;;
14306;SDS011;7237;49.500;11.400;2023-08-06T10:37:57;0.40;;;0.40;;
14306;SDS011;7237;49.500;11.400;2023-08-06T10:40:24;0.60;;;0.25;;
14306;SDS011;7237;49.500;11.400;2023-08-06T10:42:52;0.50;;;0.50;;
14306;SDS011;7237;49.500;11.400;2023-08-06T10:45:20;0.95;;;0.60;;
14306;SDS011;7237;49.500;11.400;2023-08-06T10:47:54;0.93;;;0.90;;
14306;SDS011;7237;49.500;11.400;2023-08-06T10:50:22;0.52;;;0.50;;
14306;SDS011;7237;49.500;11.400;2023-08-06T10:52:49;0.98;;;0.55;;
14306;SDS011;7237;49.500;11.400;2023-08-06T10:55:23;0.32;;;0.30;;
14306;SDS011;7237;49.500;11.400;2023-08-06T10:57:50;0.38;;;0.38;;
14306;SDS011;7237;49.500;11.400;2023-08-06T11:00:17;0.65;;;0.50;;
14306;SDS011;7237;49.500;11.400;2023-08-06T11:02:47;0.30;;;0.30;;
14306;SDS011;7237;49.500;11.400;2023-08-06T11:05:15;0.57;;;0.45;;
14306;SDS011;7237;49.500;11.400;2023-08-06T11:07:42;0.20;;;0.10;;
14306;SDS011;7237;49.500;11.400;2023-08-06T11:10:10;0.43;;;0.43;;
14306;SDS011;7237;49.500;11.400;2023-08-06T11:12:37;0.30;;;0.30;;
14306;SDS011;7237;49.500;11.400;2023-08-06T11:15:05;0.30;;;0.20;;
14306;SDS011;7237;49.500;11.400;2023-08-06T11:17:33;0.93;;;0.47;;
14306;SDS011;7237;49.500;11.400;2023-08-06T11:20:01;0.30;;;0.30;;
14306;SDS011;7237;49.500;11.400;2023-08-06T11:22:29;0.10;;;0.10;;
14306;SDS011;7237;49.500;11.400;2023-08-06T11:24:56;0.60;;;0.30;;
14306;SDS011;7237;49.500;11.400;2023-08-06T11:27:25;1.98;;;0.40;;
14306;SDS011;7237;49.500;11.400;2023-08-06T11:29:53;1.00;;;0.30;;
14306;SDS011;7237;49.500;11.400;2023-08-06T11:32:20;0.45;;;0.45;;
14306;SDS011;7237;49.500;11.400;2023-08-06T11:34:47;0.20;;;0.20;;
14306;SDS011;7237;49.500;11.400;2023-08-06T11:37:15;0.35;;;0.35;;
14306;SDS011;7237;49.500;11.400;2023-08-06T11:39:44;1.38;;;0.22;;
14306;SDS011;7237;49.500;11.400;2023-08-06T11:42:13;0.43;;;0.30;;
14306;SDS011;7237;49.500;11.400;2023-08-06T11:44:40;0.22;;;0.22;;
14306;SDS011;7237;49.500;11.400;2023-08-06T11:47:11;0.28;;;0.28;;
14306;SDS011;7237;49.500;11.400;2023-08-06T11:49:39;1.20;;;0.30;;
14306;SDS011;7237;49.500;11.400;2023-08-06T11:52:10;0.30;;;0.30;;
14306;SDS011;7237;49.500;11.400;2023-08-06T11:54:38;0.20;;;0.20;;
14306;SDS011;7237;49.500;11.400;2023-08-06T11:57:06;0.75;;;0.32;;
14306;SDS011;7237;49.500;11.400;2023-08-06T11:59:33;0.95;;;0.38;;
14306;SDS011;7237;49.500;11.400;2023-08-06T12:02:01;0.08;;;0.08;;
14306;SDS011;7237;49.500;11.400;2023-08-06T12:04:30;0.30;;;0.20;;
14306;SDS011;7237;49.500;11.400;2023-08-06T12:07:04;0.45;;;0.38;;
14306;SDS011;7237;49.500;11.400;2023-08-06T12:09:32;0.32;;;0.30;;
14306;SDS011;7237;49.500;11.400;2023-08-06T12:12:02;0.73;;;0.25;;
14306;SDS011;7237;49.500;11.400;2023-08-06T12:14:29;0.20;;;0.17;;
14306;SDS011;7237;49.500;11.400;2023-08-06T12:16:58;0.20;;;0.20;;
14306;SDS011;7237;49.500;11.400;2023-08-06T12:19:26;0.40;;;0.40;;
14306;SDS011;7237;49.500;11.400;2023-08-06T12:21:55;1.70;;;0.40;;
14306;SDS011;7237;49.500;11.400;2023-08-06T12:24:22;0.10;;;0.10;;
14306;SDS011;7237;49.500;11.400;2023-08-06T12:26:49;0.20;;;0.20;;
14306;SDS011;7237;49.500;11.400;2023-08-06T12:29:18;0.65;;;0.20;;
14306;SDS011;7237;49.500;11.400;2023-08-06T12:31:45;0.10;;;0.10;;
14306;SDS011;7237;49.500;11.400;2023-08-06T12:34:12;0.13;;;0.10;;
14306;SDS011;7237;49.500;11.400;2023-08-06T12:36:39;0.30;;;0.30;;
14306;SDS011;7237;49.500;11.400;2023-08-06T12:39:06;0.40;;;0.30;;
14306;SDS011;7237;49.500;11.400;2023-08-06T12:41:33;1.13;;;0.28;;
14306;SDS011;7237;49.500;11.400;2023-08-06T12:44:00;1.45;;;0.30;;
14306;SDS011;7237;49.500;11.400;2023-08-06T12:46:29;0.63;;;0.45;;
14306;SDS011;7237;49.500;11.400;2023-08-06T12:48:56;0.57;;;0.28;;
14306;SDS011;7237;49.500;11.400;2023-08-06T12:51:23;3.03;;;0.40;;
14306;SDS011;7237;49.500;11.400;2023-08-06T12:53:50;0.30;;;0.30;;
14306;SDS011;7237;49.500;11.400;2023-08-06T12:56:17;0.28;;;0.28;;
14306;SDS011;7237;49.500;11.400;2023-08-06T12:58:44;1.08;;;0.30;;
14306;SDS011;7237;49.500;11.400;2023-08-06T13:01:11;0.82;;;0.30;;
14306;SDS011;7237;49.500;11.400;2023-08-06T13:03:40;0.20;;;0.20;;
14306;SDS011;7237;49.500;11.400;2023-08-06T13:06:08;0.30;;;0.30;;
14306;SDS011;7237;49.500;11.400;2023-08-06T13:08:36;0.68;;;0.68;;
14306;SDS011;7237;49.500;11.400;2023-08-06T13:11:03;1.05;;;0.40;;
14306;SDS011;7237;49.500;11.400;2023-08-06T13:13:31;0.30;;;0.30;;
14306;SDS011;7237;49.500;11.400;2023-08-06T13:15:58;0.35;;;0.30;;
14306;SDS011;7237;49.500;11.400;2023-08-06T13:18:25;0.60;;;0.25;;
14306;SDS011;7237;49.500;11.400;2023-08-06T13:20:55;0.28;;;0.28;;
14306;SDS011;7237;49.500;11.400;2023-08-06T13:23:22;0.20;;;0.20;;
14306;SDS011;7237;49.500;11.400;2023-08-06T13:25:50;4.47;;;0.88;;
14306;SDS011;7237;49.500;11.400;2023-08-06T13:28:17;0.15;;;0.10;;
14306;SDS011;7237;49.500;11.400;2023-08-06T13:30:45;0.40;;;0.15;;
14306;SDS011;7237;49.500;11.400;2023-08-06T13:33:12;0.20;;;0.20;;
14306;SDS011;7237;49.500;11.400;2023-08-06T13:35:39;0.15;;;0.15;;
14306;SDS011;7237;49.500;11.400;2023-08-06T13:38:07;0.17;;;0.17;;
14306;SDS011;7237;49.500;11.400;2023-08-06T13:40:35;0.32;;;0.32;;
14306;SDS011;7237;49.500;11.400;2023-08-06T13:43:02;0.30;;;0.30;;
14306;SDS011;7237;49.500;11.400;2023-08-06T13:45:29;0.20;;;0.20;;
14306;SDS011;7237;49.500;11.400;2023-08-06T13:48:00;0.20;;;0.20;;
14306;SDS011;7237;49.500;11.400;2023-08-06T13:50:29;0.40;;;0.30;;
14306;SDS011;7237;49.500;11.400;2023-08-06T13:52:59;0.40;;;0.20;;
14306;SDS011;7237;49.500;11.400;2023-08-06T13:55:28;0.13;;;0.13;;
14306;SDS011;7237;49.500;11.400;2023-08-06T13:57:56;1.73;;;0.35;;
14306;SDS011;7237;49.500;11.400;2023-08-06T14:00:23;0.30;;;0.13;;
14306;SDS011;7237;49.500;11.400;2023-08-06T14:02:50;1.50;;;0.10;;
14306;SDS011;7237;49.500;11.400;2023-08-06T14:05:17;0.40;;;0.10;;
14306;SDS011;7237;49.500;11.400;2023-08-06T14:07:45;0.10;;;0.10;;
14306;SDS011;7237;49.500;11.400;2023-08-06T14:10:12;0.08;;;0.08;;
14306;SDS011;7237;49.500;11.400;2023-08-06T14:12:41;2.05;;;0.20;;
14306;SDS011;7237;49.500;11.400;2023-08-06T14:15:08;0.10;;;0.10;;
14306;SDS011;7237;49.500;11.400;2023-08-06T14:17:36;0.20;;;0.20;;
14306;SDS011;7237;49.500;11.400;2023-08-06T14:20:03;0.43;;;0.30;;
14306;SDS011;7237;49.500;11.400;2023-08-06T14:22:32;0.20;;;0.20;;
14306;SDS011;7237;49.500;11.400;2023-08-06T14:24:59;0.10;;;0.10;;
14306;SDS011;7237;49.500;11.400;2023-08-06T14:27:27;1.25;;;0.20;;
14306;SDS011;7237;49.500;11.400;2023-08-06T14:29:56;0.22;;;0.22;;
14306;SDS011;7237;49.500;11.400;2023-08-06T14:32:23;3.40;;;0.20;;
14306;SDS011;7237;49.500;11.400;2023-08-06T14:34:51;0.32;;;0.32;;
14306;SDS011;7237;49.500;11.400;2023-08-06T14:37:18;0.35;;;0.35;;
14306;SDS011;7237;49.500;11.400;2023-08-06T14:39:46;0.28;;;0.28;;
14306;SDS011;7237;49.500;11.400;2023-08-06T14:42:13;0.13;;;0.13;;
14306;SDS011;7237;49.500;11.400;2023-08-06T14:44:40;0.35;;;0.22;;
14306;SDS011;7237;49.500;11.400;2023-08-06T14:47:08;0.52;;;0.28;;
14306;SDS011;7237;49.500;11.400;2023-08-06T14:49:35;0.10;;;0.10;;
14306;SDS011;7237;49.500;11.400;2023-08-06T14:52:03;0.40;;;0.40;;